Time;durP1;ratioP1;P1;durP2;ratioP2;P2;SDS_P1;SDS_P2;PMS_P1;PMS_P2;Temp;Humidity;BMP_temperature;BMP_pressure;BME280_temperature;BME280_humidity;BME280_pressure;Samples;Min_cycle;Max_cycle;Signal;HPM_P1;HPM_P2
2024/01/08 00:01:55;;;;;;;2.40;1.40;;;8.90;94.60;;;;;;6304861;22;20038;-72
2024/01/08 00:04:21;;;;;;;2.07;1.20;;;8.80;94.90;;;;;;6307056;22;20005;-73
2024/01/08 00:06:47;;;;;;;1.83;1.30;;;8.80;94.70;;;;;;6306873;22;20002;-73
2024/01/08 00:09:13;;;;;;;2.63;1.60;;;8.90;94.60;;;;;;6306901;22;20009;-72
2024/01/08 00:11:38;;;;;;;2.60;1.47;;;8.80;93.90;;;;;;6306800;22;20004;-73
2024/01/08 00:14:04;;;;;;;3.47;1.33;;;8.80;94.10;;;;;;6307468;22;20010;-72
2024/01/08 00:16:30;;;;;;;2.10;1.40;;;8.90;94.20;;;;;;6307671;22;20010;-72
2024/01/08 00:18:57;;;;;;;1.40;1.13;;;8.80;94.30;;;;;;6307729;22;20386;-72
2024/01/08 00:21:55;;;;;;;;;;;;;;;;;;;;;
2024/01/08 00:24:46;;;;;;;2.33;1.40;;;8.80;94.20;;;;;;6191173;23;20192;-73
2024/01/08 00:27:33;;;;;;;;;;;;;;;;;;;;;
2024/01/08 00:34:15;;;;;;;;;;;;;;;;;;;;;
2024/01/08 00:40:37;;;;;;;2.53;1.70;;;8.80;93.50;;;;;;6122993;23;20024;-73
2024/01/08 00:46:48;;;;;;;;;;;8.80;93.90;;;;;;6065949;23;20003;-73
2024/01/08 00:49:14;;;;;;;1.80;1.20;;;8.70;94.40;;;;;;6065595;23;20236;-72
2024/01/08 00:51:41;;;;;;;2.13;1.43;;;8.80;93.70;;;;;;6181072;23;20011;-74
2024/01/08 00:54:07;;;;;;;2.60;1.80;;;8.70;93.10;;;;;;6255767;22;20003;-73
2024/01/08 00:56:32;;;;;;;3.03;1.67;;;8.80;93.90;;;;;;6307106;22;20015;-75
2024/01/08 00:58:58;;;;;;;2.40;1.70;;;8.80;93.70;;;;;;6308875;22;20041;-73
2024/01/08 01:01:26;;;;;;;2.33;1.57;;;8.80;94.00;;;;;;6308741;22;20021;-75
2024/01/08 01:03:52;;;;;;;2.10;1.30;;;8.80;93.70;;;;;;6281608;22;20003;-73
2024/01/08 01:06:21;;;;;;;2.83;1.67;;;8.80;92.40;;;;;;6308579;22;20053;-75
2024/01/08 01:08:47;;;;;;;1.97;1.47;;;8.90;92.70;;;;;;6308332;22;20333;-74
2024/01/08 01:11:15;;;;;;;4.40;1.80;;;8.90;92.80;;;;;;6308311;22;20452;-75
2024/01/08 01:13:41;;;;;;;3.30;1.43;;;8.90;93.30;;;;;;6281190;22;20097;-73
2024/01/08 01:16:07;;;;;;;2.97;1.80;;;8.90;92.60;;;;;;6308504;22;20077;-74
2024/01/08 01:18:33;;;;;;;1.73;1.47;;;8.80;92.50;;;;;;6308709;22;20451;-72
2024/01/08 01:20:58;;;;;;;2.73;1.80;;;8.80;92.60;;;;;;6308441;22;20031;-74
2024/01/08 01:23:24;;;;;;;2.60;1.40;;;8.80;91.90;;;;;;6308464;22;20054;-75
2024/01/08 01:25:50;;;;;;;2.23;1.67;;;8.80;90.80;;;;;;6308425;22;20018;-75
2024/01/08 01:28:16;;;;;;;3.37;2.10;;;8.80;91.10;;;;;;6308479;22;20011;-72
2024/01/08 01:30:42;;;;;;;2.83;1.70;;;8.70;92.00;;;;;;6308768;22;19995;-72
2024/01/08 01:33:08;;;;;;;1.93;1.57;;;8.80;92.30;;;;;;6308371;22;20003;-72
2024/01/08 01:35:33;;;;;;;2.47;1.50;;;8.70;92.10;;;;;;6308427;22;20022;-73
2024/01/08 01:37:59;;;;;;;2.30;1.63;;;8.70;91.70;;;;;;6308502;22;20033;-72
2024/01/08 01:40:25;;;;;;;3.07;1.60;;;8.60;91.40;;;;;;6308194;22;20004;-72
2024/01/08 01:42:54;;;;;;;3.10;2.03;;;8.60;91.50;;;;;;6308353;22;20380;-71
2024/01/08 01:45:24;;;;;;;2.97;2.00;;;8.60;92.00;;;;;;6308228;22;19999;-72
2024/01/08 01:47:54;;;;;;;2.83;1.90;;;8.60;91.70;;;;;;6308240;22;20437;-73
2024/01/08 01:50:21;;;;;;;3.03;1.93;;;8.60;92.30;;;;;;6308812;22;20066;-75
2024/01/08 01:52:47;;;;;;;3.07;1.90;;;8.60;92.10;;;;;;6309207;22;19996;-75
2024/01/08 01:55:14;;;;;;;3.77;2.80;;;8.60;91.70;;;;;;6308846;22;20026;-74
2024/01/08 01:57:42;;;;;;;2.83;1.87;;;8.60;90.90;;;;;;6307709;22;20007;-74
2024/01/08 02:00:14;;;;;;;3.43;2.30;;;8.60;90.50;;;;;;6305197;22;20003;-75
2024/01/08 02:27:14;;;;;;;2.30;1.87;;;8.30;91.80;;;;;;6150691;23;20053;-73
2024/01/08 02:29:39;;;;;;;3.97;2.30;;;8.30;91.90;;;;;;6213274;23;20398;-72
2024/01/08 02:32:07;;;;;;;3.77;2.30;;;8.30;92.00;;;;;;6235585;22;20130;-73
2024/01/08 02:34:33;;;;;;;4.00;2.23;;;8.20;92.10;;;;;;6307955;22;20015;-73
2024/01/08 02:36:59;;;;;;;3.37;2.50;;;8.20;92.00;;;;;;6306846;22;20376;-73
2024/01/08 02:39:25;;;;;;;3.00;2.20;;;8.20;91.60;;;;;;6307457;22;20015;-74
2024/01/08 02:41:51;;;;;;;2.90;2.17;;;8.20;91.10;;;;;;6307755;22;19996;-72
2024/01/08 02:44:16;;;;;;;3.40;2.50;;;8.20;91.20;;;;;;6307735;22;20003;-73
2024/01/08 02:46:42;;;;;;;4.00;2.73;;;8.20;91.20;;;;;;6307451;22;20067;-73
2024/01/08 02:49:08;;;;;;;3.77;2.60;;;8.20;91.10;;;;;;6307458;22;20002;-73
2024/01/08 02:51:33;;;;;;;3.47;2.07;;;8.20;91.30;;;;;;6307634;22;20010;-73
2024/01/08 02:53:59;;;;;;;5.10;2.70;;;8.20;91.90;;;;;;6307729;22;20070;-73
2024/01/08 02:56:25;;;;;;;3.30;2.33;;;8.20;91.10;;;;;;6307507;22;20015;-72
2024/01/08 02:58:51;;;;;;;3.80;2.60;;;8.20;91.20;;;;;;6307298;22;20076;-73
2024/01/08 03:01:17;;;;;;;3.27;2.40;;;8.10;91.00;;;;;;6307590;22;20021;-72
2024/01/08 03:03:43;;;;;;;3.70;2.50;;;8.10;91.20;;;;;;6307477;22;20464;-72
2024/01/08 03:06:08;;;;;;;3.83;2.33;;;8.10;91.00;;;;;;6307547;22;19996;-73
2024/01/08 03:08:34;;;;;;;3.50;2.30;;;8.10;91.90;;;;;;6307396;22;20116;-73
2024/01/08 03:11:00;;;;;;;3.17;2.53;;;8.10;90.60;;;;;;6307285;22;20015;-72
2024/01/08 03:13:26;;;;;;;2.90;2.37;;;8.10;90.90;;;;;;6279911;22;20030;-73
2024/01/08 03:15:51;;;;;;;3.10;2.40;;;8.10;91.30;;;;;;6307460;22;20074;-73
2024/01/08 03:18:17;;;;;;;3.20;2.50;;;8.00;91.30;;;;;;6307152;22;20011;-75
2024/01/08 03:20:43;;;;;;;3.20;2.33;;;8.10;91.10;;;;;;6307209;22;19999;-73
2024/01/08 03:23:09;;;;;;;3.07;2.30;;;8.00;91.20;;;;;;6307288;22;20132;-73
2024/01/08 03:25:36;;;;;;;5.27;3.10;;;8.00;91.00;;;;;;6306994;22;20006;-75
2024/01/08 03:28:02;;;;;;;3.17;2.30;;;8.00;91.00;;;;;;6307304;22;19999;-73
2024/01/08 03:30:28;;;;;;;3.13;2.40;;;8.00;91.80;;;;;;6307798;22;20006;-72
2024/01/08 03:32:54;;;;;;;3.37;2.07;;;8.10;91.40;;;;;;6308022;22;20003;-73
2024/01/08 03:35:20;;;;;;;3.10;2.10;;;8.10;90.90;;;;;;6307784;22;19999;-73
2024/01/08 03:37:46;;;;;;;3.47;2.70;;;8.00;91.30;;;;;;6307813;22;20003;-73
2024/01/08 03:47:30;;;;;;;3.60;2.37;;;8.00;91.70;;;;;;6307256;22;20064;-73
2024/01/08 03:57:45;;;;;;;4.50;2.73;;;8.00;90.50;;;;;;6169492;23;20032;-73
2024/01/08 04:00:38;;;;;;;2.90;2.43;;;8.00;90.10;;;;;;6211738;23;20017;-74
2024/01/08 04:06:28;;;;;;;4.60;2.53;;;7.90;90.50;;;;;;6275843;22;20023;-76
2024/01/08 04:08:54;;;;;;;3.67;2.40;;;7.80;90.40;;;;;;6276201;22;19996;-75
2024/01/08 04:11:20;;;;;;;4.53;2.87;;;7.80;90.50;;;;;;6248798;22;20303;-75
2024/01/08 04:13:47;;;;;;;3.57;2.60;;;7.80;90.00;;;;;;6276078;22;20041;-73
2024/01/08 04:16:13;;;;;;;3.63;2.63;;;7.80;90.30;;;;;;6276172;22;20003;-73
2024/01/08 04:18:38;;;;;;;3.47;2.40;;;7.80;90.70;;;;;;6275994;22;20034;-72
2024/01/08 04:21:04;;;;;;;3.37;2.43;;;7.80;90.00;;;;;;6275687;22;19996;-74
2024/01/08 04:23:30;;;;;;;3.77;2.47;;;7.80;90.70;;;;;;6276117;22;20016;-74
2024/01/08 04:25:56;;;;;;;3.67;2.60;;;7.80;90.10;;;;;;6248915;22;20000;-74
2024/01/08 04:28:21;;;;;;;3.80;2.87;;;7.80;89.40;;;;;;6248724;22;20004;-75
2024/01/08 04:30:47;;;;;;;3.47;2.50;;;7.80;88.60;;;;;;6276401;22;20003;-73
2024/01/08 04:33:13;;;;;;;5.57;2.60;;;7.80;90.50;;;;;;6278021;22;20072;-74
2024/01/08 04:35:39;;;;;;;3.80;2.40;;;7.90;90.00;;;;;;6278027;22;20007;-76
2024/01/08 04:38:04;;;;;;;3.97;2.70;;;8.00;90.60;;;;;;6278057;22;20035;-76
2024/01/08 04:40:30;;;;;;;3.87;2.50;;;8.00;90.00;;;;;;6278070;22;20003;-75
2024/01/08 04:42:56;;;;;;;3.17;2.50;;;8.00;88.90;;;;;;6277709;22;20004;-75
2024/01/08 04:45:21;;;;;;;4.00;2.97;;;8.00;89.20;;;;;;6277776;22;20010;-75
2024/01/08 04:47:47;;;;;;;3.43;2.57;;;8.00;89.40;;;;;;6278303;22;20007;-72
2024/01/08 04:50:13;;;;;;;3.73;2.63;;;7.90;88.40;;;;;;6278024;22;20000;-72
2024/01/08 04:52:39;;;;;;;4.50;2.53;;;8.00;88.90;;;;;;6277987;22;20113;-72
2024/01/08 04:55:05;;;;;;;3.53;2.50;;;7.90;88.90;;;;;;6277428;22;20075;-72
2024/01/08 04:57:31;;;;;;;4.43;2.57;;;7.90;88.10;;;;;;6275739;22;20015;-72
2024/01/08 04:59:57;;;;;;;4.43;2.70;;;7.90;88.50;;;;;;6277962;22;20003;-72
2024/01/08 05:02:23;;;;;;;3.83;2.80;;;7.90;86.00;;;;;;6278260;22;19999;-72
2024/01/08 05:04:48;;;;;;;3.20;2.40;;;7.90;87.30;;;;;;6277780;22;20055;-72
2024/01/08 05:07:14;;;;;;;4.70;2.90;;;7.90;87.70;;;;;;6278233;22;20066;-75
2024/01/08 05:09:40;;;;;;;4.30;2.87;;;7.80;87.60;;;;;;6277965;22;20447;-72
2024/01/08 05:12:06;;;;;;;3.70;2.73;;;7.80;88.40;;;;;;6278251;22;20436;-75
2024/01/08 05:14:32;;;;;;;6.67;2.87;;;7.70;87.30;;;;;;6278645;22;20329;-76
2024/01/08 05:16:58;;;;;;;4.70;2.97;;;7.80;88.20;;;;;;6251316;22;20008;-75
2024/01/08 05:19:24;;;;;;;4.00;2.60;;;7.80;86.20;;;;;;6278158;22;20372;-75
2024/01/08 05:37:14;;;;;;;5.43;3.30;;;7.60;88.70;;;;;;6066362;23;20090;-75
2024/01/08 05:40:16;;;;;;;4.53;2.97;;;7.50;89.30;;;;;;6066594;23;20073;-75
2024/01/08 05:47:08;;;;;;;5.57;3.10;;;7.50;88.20;;;;;;5925173;24;20020;-73
2024/01/08 05:49:34;;;;;;;3.83;2.60;;;7.50;88.70;;;;;;5958051;23;20504;-73
2024/01/08 05:52:00;;;;;;;3.87;2.80;;;7.60;86.80;;;;;;6245963;22;20000;-75
2024/01/08 05:54:26;;;;;;;5.50;3.17;;;7.60;86.70;;;;;;6276737;22;20031;-74
2024/01/08 05:56:52;;;;;;;5.30;2.87;;;7.50;86.20;;;;;;6276845;22;20087;-75
2024/01/08 05:59:17;;;;;;;3.40;2.47;;;7.50;87.20;;;;;;6305591;22;20022;-73
2024/01/08 06:01:43;;;;;;;3.90;2.73;;;7.50;89.00;;;;;;6308253;22;19995;-76
2024/01/08 06:04:10;;;;;;;4.40;2.63;;;7.50;87.50;;;;;;6307874;22;20003;-76
2024/01/08 06:06:36;;;;;;;5.07;2.47;;;7.50;87.40;;;;;;6307944;22;20326;-76
2024/01/08 06:09:02;;;;;;;3.40;2.63;;;7.50;86.20;;;;;;6308152;22;19999;-73
2024/01/08 06:11:27;;;;;;;3.30;2.50;;;7.50;85.30;;;;;;6308176;22;20022;-75
2024/01/08 06:13:53;;;;;;;3.83;2.60;;;7.60;85.20;;;;;;6307653;22;20082;-75
2024/01/08 06:16:19;;;;;;;4.30;2.60;;;7.60;83.80;;;;;;6306498;22;20044;-75
2024/01/08 06:18:45;;;;;;;6.40;2.80;;;7.60;83.40;;;;;;6305623;22;20021;-75
2024/01/08 06:21:10;;;;;;;3.80;2.90;;;7.60;83.50;;;;;;6305737;22;20005;-76
2024/01/08 06:23:36;;;;;;;5.83;2.43;;;7.50;84.50;;;;;;6307249;22;20014;-75
2024/01/08 06:26:03;;;;;;;3.60;2.80;;;7.50;85.50;;;;;;6307594;22;19999;-76
2024/01/08 06:28:29;;;;;;;3.90;2.70;;;7.60;84.40;;;;;;6307604;22;20002;-76
2024/01/08 06:30:56;;;;;;;3.83;2.77;;;7.60;83.00;;;;;;6308179;22;20007;-76
2024/01/08 06:33:22;;;;;;;4.20;2.70;;;7.60;82.20;;;;;;6307455;22;20370;-75
2024/01/08 06:35:48;;;;;;;4.30;2.97;;;7.60;82.60;;;;;;6307415;22;20003;-75
2024/01/08 06:38:14;;;;;;;3.97;2.33;;;7.60;83.90;;;;;;6307834;22;20007;-75
2024/01/08 06:40:40;;;;;;;4.27;2.80;;;7.50;84.00;;;;;;6307697;22;20000;-75
2024/01/08 06:43:05;;;;;;;4.10;2.80;;;7.60;82.80;;;;;;6307789;22;20057;-75
2024/01/08 06:45:31;;;;;;;3.53;2.67;;;7.50;84.50;;;;;;6307875;22;19999;-75
2024/01/08 06:47:57;;;;;;;3.27;2.53;;;7.50;85.00;;;;;;6307799;22;20066;-76
2024/01/08 06:50:23;;;;;;;4.60;2.90;;;7.50;83.20;;;;;;6307507;22;20060;-75
2024/01/08 06:52:49;;;;;;;5.57;2.80;;;7.50;83.20;;;;;;6308601;22;20427;-76
2024/01/08 06:55:15;;;;;;;5.13;3.00;;;7.40;83.50;;;;;;6307317;22;20020;-76
2024/01/08 06:57:41;;;;;;;4.50;3.00;;;7.40;83.40;;;;;;6307782;22;20019;-75
2024/01/08 07:00:11;;;;;;;5.27;3.07;;;7.30;84.00;;;;;;6308096;22;20090;-76
2024/01/08 07:03:40;;;;;;;5.10;3.30;;;7.30;84.70;;;;;;6307495;22;20071;-76
2024/01/08 07:07:02;;;;;;;6.57;3.13;;;7.20;84.30;;;;;;6243350;23;20374;-75
2024/01/08 07:09:53;;;;;;;8.93;2.83;;;7.30;84.90;;;;;;6212805;23;20005;-76
2024/01/08 07:12:52;;;;;;;4.20;2.80;;;7.20;85.70;;;;;;6197381;23;20015;-76
2024/01/08 07:16:28;;;;;;;;;;;;;;;;;;;;;
2024/01/08 07:22:21;;;;;;;4.47;2.97;;;7.10;84.50;;;;;;6148407;23;20017;-75
2024/01/08 07:25:00;;;;;;;5.40;3.50;;;7.10;85.80;;;;;;6213163;23;20015;-74
2024/01/08 07:27:26;;;;;;;7.00;3.77;;;7.20;83.90;;;;;;6286837;22;20076;-75
2024/01/08 07:29:53;;;;;;;4.83;3.20;;;7.10;84.80;;;;;;6279639;22;20052;-75
2024/01/08 07:32:19;;;;;;;6.27;3.80;;;7.20;85.40;;;;;;6279667;22;20003;-75
2024/01/08 07:34:45;;;;;;;5.10;3.23;;;7.10;85.00;;;;;;6306719;22;20014;-75
2024/01/08 07:37:10;;;;;;;4.30;3.23;;;7.20;83.30;;;;;;6306911;22;20005;-75
2024/01/08 07:39:37;;;;;;;5.03;3.40;;;7.20;82.70;;;;;;6307232;22;20042;-75
2024/01/08 07:42:03;;;;;;;4.53;3.10;;;7.10;83.30;;;;;;6307265;22;20009;-75
2024/01/08 07:44:28;;;;;;;4.97;3.40;;;7.10;83.90;;;;;;6307183;22;20027;-75
2024/01/08 07:46:54;;;;;;;5.60;3.40;;;7.10;85.60;;;;;;6306853;22;20003;-73
2024/01/08 07:49:20;;;;;;;4.40;3.40;;;7.10;84.40;;;;;;6279650;22;20007;-74
2024/01/08 07:51:45;;;;;;;6.23;3.60;;;7.10;85.30;;;;;;6307094;22;20006;-75
2024/01/08 07:54:11;;;;;;;6.00;3.63;;;7.20;84.70;;;;;;6307015;22;20046;-75
2024/01/08 07:56:37;;;;;;;5.70;3.10;;;7.20;83.70;;;;;;6306900;22;20034;-76
2024/01/08 07:59:03;;;;;;;4.17;3.00;;;7.30;81.00;;;;;;6306231;22;20094;-75
2024/01/08 08:01:29;;;;;;;4.37;2.87;;;7.30;80.50;;;;;;6306950;22;20002;-75
2024/01/08 08:03:54;;;;;;;5.03;3.30;;;7.30;81.40;;;;;;6307244;22;20003;-75
2024/01/08 08:06:20;;;;;;;5.50;4.17;;;7.20;81.90;;;;;;6306926;22;19995;-72
2024/01/08 08:08:46;;;;;;;3.90;3.03;;;7.20;83.10;;;;;;6307306;22;19999;-72
2024/01/08 08:11:12;;;;;;;8.70;3.80;;;7.20;84.20;;;;;;6306901;22;19999;-72
2024/01/08 08:13:38;;;;;;;4.60;3.30;;;7.20;84.80;;;;;;6306642;22;20025;-72
2024/01/08 08:16:04;;;;;;;4.73;3.10;;;7.20;85.90;;;;;;6306607;22;20045;-72
2024/01/08 08:18:30;;;;;;;8.77;3.33;;;7.20;84.50;;;;;;6306634;22;20449;-73
2024/01/08 08:20:57;;;;;;;5.07;3.50;;;7.20;85.20;;;;;;6306713;22;19995;-72
2024/01/08 08:23:24;;;;;;;5.33;3.20;;;7.30;86.00;;;;;;6306908;22;20004;-72
2024/01/08 08:25:49;;;;;;;5.03;3.53;;;7.30;85.40;;;;;;6307009;22;20006;-75
2024/01/08 08:28:15;;;;;;;5.27;3.47;;;7.30;85.10;;;;;;6307737;22;20074;-76
2024/01/08 08:30:41;;;;;;;6.63;3.60;;;7.40;84.60;;;;;;6307640;22;20451;-74
2024/01/08 08:33:07;;;;;;;6.70;3.57;;;7.40;83.60;;;;;;6278596;22;20547;-74
2024/01/08 08:35:34;;;;;;;4.83;3.00;;;7.40;84.00;;;;;;6304221;22;20038;-75
2024/01/08 08:38:06;;;;;;;6.63;3.00;;;7.40;83.80;;;;;;6304017;22;20576;-74
2024/01/08 08:40:38;;;;;;;7.82;3.85;;;7.40;83.80;;;;;;6305469;22;19996;-75
2024/01/08 08:46:31;;;;;;;4.73;3.10;;;7.40;83.30;;;;;;6152559;23;20013;-77
2024/01/08 08:59:02;;;;;;;6.63;3.17;;;7.40;83.70;;;;;;6188184;23;20108;-74
2024/01/08 09:05:15;;;;;;;6.07;2.77;;;7.40;84.70;;;;;;6093698;23;20497;-74
2024/01/08 09:07:41;;;;;;;6.60;3.37;;;7.40;83.40;;;;;;6090624;23;20006;-74
2024/01/08 09:10:07;;;;;;;4.63;2.90;;;7.40;83.40;;;;;;6186105;22;20398;-74
2024/01/08 09:12:33;;;;;;;6.57;3.40;;;7.40;84.20;;;;;;6274559;22;20088;-74
2024/01/08 09:14:59;;;;;;;4.57;2.77;;;7.50;85.00;;;;;;6275228;22;20027;-74
2024/01/08 09:17:25;;;;;;;4.17;3.10;;;7.50;83.80;;;;;;6276427;22;20000;-74
2024/01/08 09:19:52;;;;;;;4.10;2.93;;;7.40;83.10;;;;;;6250810;22;20018;-74
2024/01/08 09:22:17;;;;;;;4.10;2.90;;;7.40;84.80;;;;;;6250526;22;20385;-74
2024/01/08 09:24:43;;;;;;;5.33;3.33;;;7.50;85.60;;;;;;6277516;22;20038;-74
2024/01/08 09:27:09;;;;;;;5.13;2.97;;;7.50;83.90;;;;;;6277379;22;20006;-73
2024/01/08 09:29:35;;;;;;;4.93;3.30;;;7.60;83.40;;;;;;6275933;22;20014;-73
2024/01/08 09:32:00;;;;;;;4.83;3.23;;;7.60;82.20;;;;;;6277470;22;20031;-73
2024/01/08 09:34:27;;;;;;;5.17;3.53;;;7.60;81.30;;;;;;6277652;22;19996;-73
2024/01/08 09:36:52;;;;;;;5.80;3.20;;;7.60;80.50;;;;;;6277599;22;21048;-73
2024/01/08 09:39:18;;;;;;;7.07;3.40;;;7.60;81.40;;;;;;6277366;22;20105;-73
2024/01/08 09:41:48;;;;;;;3.73;2.87;;;7.70;79.50;;;;;;6277606;22;20004;-73
2024/01/08 09:44:15;;;;;;;5.23;3.57;;;7.70;78.70;;;;;;6277403;22;20000;-73
2024/01/08 09:46:47;;;;;;;6.60;3.07;;;7.70;79.90;;;;;;6277228;22;20010;-73
2024/01/08 09:49:15;;;;;;;4.43;3.37;;;7.60;78.60;;;;;;6276322;22;20330;-73
2024/01/08 09:51:42;;;;;;;4.53;3.00;;;7.60;79.20;;;;;;6277165;22;20010;-73
2024/01/08 09:54:08;;;;;;;4.17;2.90;;;7.60;79.60;;;;;;6277082;22;20034;-73
2024/01/08 09:56:34;;;;;;;4.43;3.00;;;7.60;79.30;;;;;;6276820;22;20000;-73
2024/01/08 09:59:00;;;;;;;5.87;3.37;;;7.60;79.40;;;;;;6300421;22;20016;-73
2024/01/08 10:01:26;;;;;;;4.80;2.83;;;7.60;79.70;;;;;;6308226;22;19999;-73
2024/01/08 10:03:52;;;;;;;4.00;3.00;;;7.60;78.50;;;;;;6280395;22;20071;-73
2024/01/08 10:06:18;;;;;;;5.53;3.30;;;7.60;78.30;;;;;;6307999;22;20019;-73
2024/01/08 10:08:45;;;;;;;5.23;3.40;;;7.60;77.20;;;;;;6308101;22;19999;-72
2024/01/08 10:11:12;;;;;;;7.03;3.50;;;7.60;77.60;;;;;;6308091;22;20393;-73
2024/01/08 10:13:41;;;;;;;7.63;4.03;;;7.50;77.30;;;;;;6279397;22;20052;-73
2024/01/08 10:16:08;;;;;;;5.63;3.87;;;7.50;77.70;;;;;;6308216;22;20000;-73
2024/01/08 10:19:23;;;;;;;8.80;3.57;;;7.40;77.30;;;;;;6308034;22;20015;-74
2024/01/08 10:25:49;;;;;;;;;;;;;;;;;;;;;
2024/01/08 10:39:59;;;;;;;;;;;;;;;;;;;;;
2024/01/08 10:42:28;;;;;;;5.83;3.90;;;7.30;84.70;;;;;;5871048;24;20096;-73
2024/01/08 10:44:55;;;;;;;7.67;3.47;;;7.30;85.10;;;;;;5953037;24;20084;-72
2024/01/08 10:47:25;;;;;;;4.13;3.00;;;7.40;85.30;;;;;;6111852;23;20411;-74
2024/01/08 10:49:56;;;;;;;7.60;3.50;;;7.40;83.30;;;;;;6270981;22;20003;-76
2024/01/08 10:52:29;;;;;;;5.60;3.47;;;7.50;78.80;;;;;;6307976;22;19999;-69
2024/01/08 10:55:00;;;;;;;4.67;3.07;;;7.50;78.10;;;;;;6307684;22;20414;-69
2024/01/08 10:57:59;;;;;;;4.03;2.90;;;7.40;78.10;;;;;;6307298;22;20006;-69
2024/01/08 11:00:26;;;;;;;7.47;3.43;;;7.30;80.50;;;;;;6274684;22;20385;-69
2024/01/08 11:02:52;;;;;;;6.67;3.70;;;7.30;80.90;;;;;;6307948;22;20322;-69
2024/01/08 11:05:21;;;;;;;6.00;3.70;;;7.30;82.00;;;;;;6307792;22;20329;-69
2024/01/08 11:07:51;;;;;;;5.93;3.17;;;7.30;82.40;;;;;;6307496;22;20065;-69
2024/01/08 11:10:18;;;;;;;8.73;4.10;;;7.20;81.50;;;;;;6279989;22;20393;-69
2024/01/08 11:12:56;;;;;;;4.87;3.23;;;7.30;82.30;;;;;;6307389;22;20485;-69
2024/01/08 11:15:26;;;;;;;5.80;4.00;;;7.30;78.50;;;;;;6307822;22;20429;-69
2024/01/08 11:17:53;;;;;;;5.40;3.80;;;7.20;79.50;;;;;;6307938;22;20440;-69
2024/01/08 11:20:41;;;;;;;8.90;4.00;;;7.20;80.30;;;;;;6307680;22;20014;-69
2024/01/08 11:23:35;;;;;;;5.37;3.50;;;7.20;82.10;;;;;;6307233;22;20426;-69
2024/01/08 11:26:02;;;;;;;5.33;3.50;;;7.20;82.10;;;;;;6307443;22;20007;-70
2024/01/08 11:28:32;;;;;;;5.93;3.50;;;7.30;79.20;;;;;;6306818;22;20089;-70
2024/01/08 11:31:39;;;;;;;6.43;3.67;;;7.30;79.60;;;;;;6306406;22;20021;-70
2024/01/08 11:34:44;;;;;;;7.40;3.50;;;7.20;77.70;;;;;;6242624;23;20470;-69
2024/01/08 11:37:33;;;;;;;5.77;3.53;;;7.20;79.30;;;;;;6303008;22;20483;-69
2024/01/08 11:40:04;;;;;;;5.27;3.57;;;7.20;82.20;;;;;;6306781;22;20331;-70
2024/01/08 11:42:33;;;;;;;5.63;4.00;;;7.10;81.80;;;;;;6306866;22;20009;-69
2024/01/08 11:45:03;;;;;;;7.23;3.50;;;7.10;80.00;;;;;;6307325;22;19996;-70
2024/01/08 11:47:33;;;;;;;5.53;4.10;;;7.00;80.60;;;;;;6307294;22;20026;-70
2024/01/08 11:49:59;;;;;;;7.27;3.90;;;7.00;81.30;;;;;;6307324;22;20027;-71
2024/01/08 11:52:29;;;;;;;6.03;3.70;;;7.00;81.50;;;;;;6279575;22;20038;-70
2024/01/08 11:55:52;;;;;;;;;;;;;;;;;;;;;
2024/01/08 11:58:52;;;;;;;7.82;3.83;;;7.00;82.20;;;;;;6252215;22;20094;-70
2024/01/08 12:02:14;;;;;;;6.73;3.80;;;6.90;81.10;;;;;;6306854;22;20003;-69
2024/01/08 12:05:04;;;;;;;4.97;3.53;;;6.90;81.40;;;;;;6241288;23;20381;-69
2024/01/08 12:07:31;;;;;;;5.60;3.90;;;6.80;82.90;;;;;;6250833;22;20392;-69
2024/01/08 12:10:02;;;;;;;6.10;3.70;;;6.80;82.90;;;;;;6305579;22;20010;-69
2024/01/08 12:12:29;;;;;;;6.97;3.83;;;6.80;81.80;;;;;;6307150;22;20045;-69
2024/01/08 12:14:54;;;;;;;6.20;4.00;;;6.80;82.20;;;;;;6306793;22;20375;-69
2024/01/08 12:17:22;;;;;;;5.83;3.70;;;6.80;81.20;;;;;;6306502;22;19996;-69
2024/01/08 12:19:52;;;;;;;5.73;3.23;;;6.80;80.10;;;;;;6306805;22;20011;-69
2024/01/08 12:22:19;;;;;;;4.70;3.60;;;6.80;78.60;;;;;;6306459;22;20002;-70
2024/01/08 12:24:56;;;;;;;5.80;3.50;;;6.70;81.00;;;;;;6306646;22;20011;-70
2024/01/08 12:27:22;;;;;;;4.40;3.20;;;6.70;82.60;;;;;;6306760;22;20356;-70
2024/01/08 12:29:50;;;;;;;6.13;4.00;;;6.70;79.70;;;;;;6306362;22;19995;-70
2024/01/08 12:32:18;;;;;;;6.03;3.83;;;6.70;79.70;;;;;;6306696;22;20026;-70
2024/01/08 12:34:45;;;;;;;5.87;3.50;;;6.70;78.80;;;;;;6305872;22;20417;-69
2024/01/08 12:37:12;;;;;;;5.37;3.30;;;6.70;79.60;;;;;;6306441;22;19999;-70
2024/01/08 12:39:39;;;;;;;6.27;3.67;;;6.60;79.00;;;;;;6306512;22;20038;-69
2024/01/08 12:42:10;;;;;;;6.50;3.63;;;6.60;80.40;;;;;;6306346;22;20499;-69
2024/01/08 12:44:36;;;;;;;6.67;3.53;;;6.60;79.50;;;;;;6306429;22;19995;-70
2024/01/08 12:47:07;;;;;;;4.93;3.33;;;6.60;78.90;;;;;;6306411;22;20125;-69
2024/01/08 12:49:34;;;;;;;8.80;4.23;;;6.60;78.50;;;;;;6307012;22;19999;-70
2024/01/08 12:52:01;;;;;;;7.20;4.03;;;6.60;78.80;;;;;;6307452;22;20003;-69
2024/01/08 12:54:28;;;;;;;6.07;3.90;;;6.60;79.20;;;;;;6308448;22;20033;-69
2024/01/08 12:56:54;;;;;;;7.17;3.63;;;6.50;80.90;;;;;;6308269;22;20452;-69
2024/01/08 12:59:25;;;;;;;6.30;3.50;;;6.50;80.90;;;;;;6308051;22;20007;-70
2024/01/08 13:01:52;;;;;;;5.47;3.67;;;6.60;80.20;;;;;;6308348;22;20006;-70
2024/01/08 13:04:19;;;;;;;6.10;3.77;;;6.50;81.00;;;;;;6308486;22;20003;-70
2024/01/08 13:06:46;;;;;;;5.37;3.20;;;6.50;80.60;;;;;;6309217;22;20010;-69
2024/01/08 13:09:13;;;;;;;6.77;3.97;;;6.50;79.50;;;;;;6308513;22;20022;-70
2024/01/08 13:11:40;;;;;;;7.00;3.90;;;6.50;80.10;;;;;;6308835;22;20301;-70
2024/01/08 13:14:25;;;;;;;4.53;3.27;;;6.50;81.40;;;;;;6309173;22;20371;-70
2024/01/08 13:16:51;;;;;;;5.23;3.60;;;6.50;80.20;;;;;;6308613;22;20328;-70
2024/01/08 13:23:28;;;;;;;4.90;3.50;;;6.50;81.10;;;;;;6148139;23;20548;-70
2024/01/08 13:26:37;;;;;;;5.93;3.77;;;6.50;79.80;;;;;;6124162;23;20317;-70
2024/01/08 13:29:06;;;;;;;5.53;3.57;;;6.40;81.00;;;;;;6124473;23;20106;-70
2024/01/08 13:32:19;;;;;;;5.90;3.63;;;6.50;81.40;;;;;;6125053;23;20340;-70
2024/01/08 13:35:14;;;;;;;5.85;4.28;;;6.40;81.20;;;;;;6308457;22;20333;-72
2024/01/08 13:37:40;;;;;;;6.27;4.03;;;6.40;81.40;;;;;;6183423;23;20083;-70
2024/01/08 13:40:41;;;;;;;6.27;4.10;;;6.40;82.10;;;;;;6290599;22;19999;-70
2024/01/08 13:43:09;;;;;;;5.60;3.90;;;6.40;81.40;;;;;;6307917;22;20078;-70
2024/01/08 13:45:38;;;;;;;6.10;4.30;;;6.40;81.10;;;;;;6308330;22;20364;-70
2024/01/08 13:48:04;;;;;;;9.90;4.80;;;6.40;81.30;;;;;;6307855;22;20006;-70
2024/01/08 13:50:30;;;;;;;5.60;3.80;;;6.40;80.90;;;;;;6281183;22;20057;-70
2024/01/08 13:52:56;;;;;;;6.43;3.80;;;6.40;80.60;;;;;;6308533;22;20008;-69
2024/01/08 13:55:22;;;;;;;5.43;3.63;;;6.40;80.20;;;;;;6308054;22;20068;-70
2024/01/08 13:57:48;;;;;;;6.67;4.50;;;6.30;80.50;;;;;;6280938;22;20007;-70
2024/01/08 14:00:14;;;;;;;6.10;4.23;;;6.30;80.40;;;;;;6307636;22;20027;-70
2024/01/08 14:02:41;;;;;;;7.03;4.23;;;6.30;79.80;;;;;;6307551;22;20341;-71
2024/01/08 14:05:07;;;;;;;5.63;4.00;;;6.40;78.90;;;;;;6307364;22;20494;-70
2024/01/08 14:07:33;;;;;;;6.37;3.90;;;6.40;79.10;;;;;;6307948;22;19999;-70
2024/01/08 14:09:59;;;;;;;7.77;4.33;;;6.30;79.00;;;;;;6308389;22;20007;-70
2024/01/08 14:12:25;;;;;;;6.87;3.90;;;6.30;79.60;;;;;;6308159;22;20079;-69
2024/01/08 14:14:50;;;;;;;6.53;4.80;;;6.30;79.00;;;;;;6307775;22;20057;-85
2024/01/08 14:17:16;;;;;;;6.97;5.07;;;6.20;80.70;;;;;;6307523;22;19999;-69
2024/01/08 14:19:42;;;;;;;8.13;6.30;;;6.20;80.50;;;;;;6308357;22;20064;-70
2024/01/08 14:22:08;;;;;;;5.63;4.27;;;6.20;81.40;;;;;;6308225;22;20002;-69
2024/01/08 14:24:34;;;;;;;7.03;4.53;;;6.10;80.60;;;;;;6308084;22;20010;-70
2024/01/08 14:27:00;;;;;;;5.67;4.63;;;6.10;81.10;;;;;;6307735;22;20417;-70
2024/01/08 14:29:26;;;;;;;11.53;6.20;;;6.00;82.00;;;;;;6307891;22;20003;-70
2024/01/08 14:31:52;;;;;;;9.07;4.70;;;6.10;80.80;;;;;;6307922;22;20007;-70
2024/01/08 14:34:18;;;;;;;9.07;3.90;;;6.10;81.00;;;;;;6306199;22;20010;-70
2024/01/08 14:36:45;;;;;;;8.27;5.27;;;6.10;81.60;;;;;;6304396;22;20000;-71
2024/01/08 14:39:11;;;;;;;8.90;4.60;;;6.00;81.40;;;;;;6304122;22;20007;-71
2024/01/08 14:41:37;;;;;;;8.47;4.67;;;6.10;80.40;;;;;;6306335;22;20086;-70
2024/01/08 14:44:03;;;;;;;8.00;4.47;;;6.10;81.00;;;;;;6307613;22;20031;-70
2024/01/08 14:46:29;;;;;;;7.27;4.97;;;6.00;80.30;;;;;;6307450;22;20108;-70
2024/01/08 14:48:55;;;;;;;6.90;4.43;;;5.90;81.00;;;;;;6280444;22;20015;-70
2024/01/08 14:51:21;;;;;;;7.67;4.97;;;5.90;80.70;;;;;;6308316;22;20002;-70
2024/01/08 14:53:50;;;;;;;7.23;4.83;;;5.90;81.90;;;;;;6280361;22;20011;-70
2024/01/08 14:56:16;;;;;;;7.23;4.33;;;5.90;81.40;;;;;;6307393;22;20029;-70
2024/01/08 14:59:50;;;;;;;6.37;4.53;;;5.90;80.70;;;;;;6279721;22;20473;-70
2024/01/08 15:03:10;;;;;;;16.27;4.95;;;6.00;81.00;;;;;;6182341;23;20083;-70
2024/01/08 15:06:29;;;;;;;7.77;4.77;;;5.90;81.20;;;;;;6094012;23;20010;-70
2024/01/08 15:15:09;;;;;;;13.40;5.30;;;5.90;81.90;;;;;;6064342;23;20018;-70
2024/01/08 15:18:11;;;;;;;8.30;5.07;;;5.90;82.20;;;;;;6061786;23;20837;-70
2024/01/08 15:20:43;;;;;;;6.63;4.77;;;5.90;80.80;;;;;;6063094;23;20018;-70
2024/01/08 15:23:09;;;;;;;7.30;5.20;;;5.90;81.90;;;;;;6065841;23;20371;-70